Time;durP1;ratioP1;P1;durP2;ratioP2;P2;SDS_P1;SDS_P2;PMS_P1;PMS_P2;Temp;Humidity;BMP_temperature;BMP_pressure;BME280_temperature;BME280_humidity;BME280_pressure;Samples;Min_cycle;Max_cycle;Signal;HPM_P1;HPM_P2
2021/09/16 00:01:53;;;;;;;30.90;19.60;;;;;;;11.80;83.67;97579.08;116111;1182;60300;-74
2021/09/16 00:04:22;;;;;;;27.50;19.80;;;;;;;11.76;83.34;97581.70;116174;1184;60323;-75
2021/09/16 00:06:52;;;;;;;29.00;21.50;;;;;;;11.73;83.38;97581.66;116233;1179;72162;-74
2021/09/16 00:09:21;;;;;;;27.40;20.00;;;;;;;11.69;84.24;97585.84;116162;1184;69371;-74
2021/09/16 00:11:51;;;;;;;28.40;20.60;;;;;;;11.66;84.89;97590.58;116258;1184;69085;-73
2021/09/16 00:14:21;;;;;;;31.40;23.20;;;;;;;11.65;84.35;97584.50;116066;1181;60313;-71
2021/09/16 00:16:51;;;;;;;28.10;20.80;;;;;;;11.65;84.66;97585.61;116162;1185;60403;-72
2021/09/16 00:19:21;;;;;;;26.80;20.00;;;;;;;11.62;83.53;97583.27;116020;1185;72146;-74
2021/09/16 00:21:50;;;;;;;23.10;18.60;;;;;;;11.55;82.64;97583.66;116036;1185;69147;-75
2021/09/16 00:24:20;;;;;;;31.40;21.10;;;;;;;11.48;82.56;97578.94;116046;1185;67852;-73
2021/09/16 00:26:50;;;;;;;27.70;19.90;;;;;;;11.42;82.08;97582.98;116083;1182;60276;-71
2021/09/16 00:29:20;;;;;;;25.80;19.50;;;;;;;11.37;82.32;97584.66;116122;1184;61252;-74
2021/09/16 00:31:50;;;;;;;27.50;19.70;;;;;;;11.33;81.83;97584.86;116184;1184;71267;-74
2021/09/16 00:34:20;;;;;;;28.20;19.20;;;;;;;11.29;82.08;97588.29;116146;1184;68970;-75
2021/09/16 00:36:50;;;;;;;23.50;18.60;;;;;;;11.26;82.38;97587.58;116080;1183;68345;-74
2021/09/16 00:39:21;;;;;;;28.70;19.30;;;;;;;11.20;83.54;97590.05;116063;1182;60347;-73
2021/09/16 00:41:50;;;;;;;26.10;19.00;;;;;;;11.14;84.02;97593.16;116117;1185;60341;-75
2021/09/16 00:44:21;;;;;;;29.70;20.50;;;;;;;11.09;84.47;97588.85;116277;1179;72139;-74
2021/09/16 00:46:52;;;;;;;25.20;19.40;;;;;;;11.08;84.44;97586.83;116279;1184;68665;-74
2021/09/16 00:49:21;;;;;;;25.20;19.30;;;;;;;11.08;84.48;97587.31;116224;1184;68404;-75
2021/09/16 00:51:52;;;;;;;27.40;20.60;;;;;;;11.08;85.21;97587.23;116159;1179;60391;-75
2021/09/16 00:54:23;;;;;;;30.50;22.10;;;;;;;11.08;84.72;97584.45;116126;1183;60341;-74
2021/09/16 00:56:52;;;;;;;;;;;;;;;11.06;84.52;97580.95;116263;1179;72119;-76
2021/09/16 00:59:25;;;;;;;28.60;22.30;;;;;;;11.06;86.24;97577.93;116130;1183;69072;-72
2021/09/16 01:01:55;;;;;;;31.00;24.00;;;;;;;11.07;85.05;97577.77;116326;1179;69201;-72
2021/09/16 01:04:24;;;;;;;33.80;23.80;;;;;;;11.09;84.19;97575.97;116243;1185;60282;-73
2021/09/16 01:06:56;;;;;;;27.70;22.10;;;;;;;11.10;83.49;97574.20;116364;1179;60308;-76
2021/09/16 01:09:27;;;;;;;;;;;;;;;11.08;83.62;97573.70;116328;1183;72244;-72
2021/09/16 01:11:57;;;;;;;31.80;21.70;;;;;;;11.06;83.90;97573.35;116219;1179;68881;-73
2021/09/16 01:14:29;;;;;;;26.50;20.10;;;;;;;11.05;83.76;97572.84;116267;1184;68332;-73
2021/09/16 01:17:00;;;;;;;26.90;21.30;;;;;;;11.03;84.28;97575.77;116395;1180;60384;-72
2021/09/16 01:19:30;;;;;;;33.40;23.60;;;;;;;11.00;83.96;97574.19;116141;1185;60316;-74
2021/09/16 01:22:01;;;;;;;31.30;23.30;;;;;;;10.94;84.42;97573.08;116487;1185;70663;-75
2021/09/16 01:24:31;;;;;;;31.20;21.70;;;;;;;10.91;84.54;97573.16;116194;1185;67871;-75
2021/09/16 01:27:01;;;;;;;;;;;;;;;10.86;84.83;97573.38;116236;1185;69193;-67
2021/09/16 01:29:32;;;;;;;30.20;21.70;;;;;;;10.82;85.06;97569.52;116284;1184;60362;-70
2021/09/16 01:32:05;;;;;;;30.90;22.70;;;;;;;10.83;84.79;97568.27;116306;1185;60321;-72
2021/09/16 01:34:36;;;;;;;32.70;23.20;;;;;;;10.83;85.22;97559.53;116293;1180;71528;-72
2021/09/16 01:37:07;;;;;;;;;;;;;;;10.84;86.23;97560.68;116185;1182;69145;-73
2021/09/16 01:39:38;;;;;;;25.70;21.40;;;;;;;10.86;86.13;97557.32;116337;1185;68419;-69
2021/09/16 01:42:08;;;;;;;27.70;19.70;;;;;;;10.87;86.82;97558.79;116277;1179;60339;-71
2021/09/16 01:44:38;;;;;;;25.70;20.20;;;;;;;10.87;87.32;97561.47;116114;1183;60337;-73
2021/09/16 01:47:08;;;;;;;;;;;;;;;10.87;87.33;97561.77;116205;1185;72171;-73
2021/09/16 01:49:39;;;;;;;27.00;18.70;;;;;;;10.87;87.30;97564.27;116355;1179;67600;-74
2021/09/16 01:52:10;;;;;;;30.40;21.60;;;;;;;10.86;87.20;97563.42;116349;1183;68307;-73
2021/09/16 01:54:41;;;;;;;27.90;21.20;;;;;;;10.87;86.55;97558.23;116324;1179;60358;-71
2021/09/16 01:57:12;;;;;;;25.10;20.20;;;;;;;10.88;85.94;97558.85;116233;1183;60321;-74
2021/09/16 01:59:43;;;;;;;;;;;;;;;10.88;85.57;97560.02;116375;1179;70443;-72
2021/09/16 02:02:14;;;;;;;23.90;19.40;;;;;;;10.87;85.45;97555.95;116167;1182;69113;-74
2021/09/16 02:04:44;;;;;;;30.40;22.10;;;;;;;10.85;85.58;97555.44;116136;1184;69224;-74
2021/09/16 02:07:14;;;;;;;27.50;22.20;;;;;;;10.86;85.39;97545.69;116225;1179;60319;-74
2021/09/16 02:09:46;;;;;;;30.80;22.30;;;;;;;10.85;84.62;97545.38;116395;1179;60342;-74
2021/09/16 02:12:16;;;;;;;;;;;;;;;10.84;84.92;97543.76;116187;1179;72208;-73
2021/09/16 02:14:46;;;;;;;26.30;19.00;;;;;;;10.84;87.26;97540.92;116301;1185;68256;-71
2021/09/16 02:17:16;;;;;;;24.90;20.30;;;;;;;10.83;87.44;97546.55;116356;1179;68211;-73
2021/09/16 02:19:46;;;;;;;24.30;19.90;;;;;;;10.83;87.06;97547.90;116168;1179;60364;-72
2021/09/16 02:22:16;;;;;;;30.10;20.60;;;;;;;10.83;86.66;97546.73;116294;1183;60336;-74
2021/09/16 02:24:46;;;;;;;26.50;20.90;;;;;;;10.83;87.38;97542.60;116293;1184;72156;-73
2021/09/16 02:27:15;;;;;;;29.60;21.40;;;;;;;10.85;87.60;97539.62;116288;1185;69157;-74
2021/09/16 02:29:46;;;;;;;28.30;22.20;;;;;;;10.86;86.74;97545.69;116329;1183;69183;-73
2021/09/16 02:32:15;;;;;;;28.80;20.80;;;;;;;10.84;85.65;97549.15;116250;1179;60355;-73
2021/09/16 02:34:45;;;;;;;22.80;19.00;;;;;;;10.82;86.35;97541.83;116313;1179;60342;-73
2021/09/16 02:37:15;;;;;;;23.40;17.90;;;;;;;10.80;86.26;97540.55;116120;1180;71550;-75
2021/09/16 02:39:46;;;;;;;21.70;18.20;;;;;;;10.78;85.85;97544.27;116335;1184;69141;-72
2021/09/16 02:42:15;;;;;;;24.10;19.70;;;;;;;10.74;85.75;97542.14;116331;1179;68413;-76
2021/09/16 02:44:45;;;;;;;30.50;21.90;;;;;;;10.70;85.17;97545.02;116301;1179;60381;-75
2021/09/16 02:47:15;;;;;;;26.20;21.10;;;;;;;10.69;85.41;97547.36;116296;1184;60279;-75
2021/09/16 02:49:45;;;;;;;26.00;21.00;;;;;;;10.68;86.78;97545.96;116286;1179;71307;-71
2021/09/16 02:52:15;;;;;;;28.80;21.20;;;;;;;10.67;87.28;97546.70;116301;1180;69201;-72
2021/09/16 02:54:44;;;;;;;29.20;22.70;;;;;;;10.68;87.61;97543.58;116263;1179;69203;-75
2021/09/16 02:57:14;;;;;;;27.60;21.20;;;;;;;10.69;87.02;97543.30;116096;1185;60758;-75
2021/09/16 02:59:43;;;;;;;26.30;21.60;;;;;;;10.69;86.43;97539.05;116085;1180;60306;-74
2021/09/16 03:02:13;;;;;;;26.30;19.80;;;;;;;10.66;86.07;97534.46;116272;1179;73237;-72
2021/09/16 03:04:42;;;;;;;25.20;19.20;;;;;;;10.63;85.65;97535.59;116294;1185;68415;-73
2021/09/16 03:07:12;;;;;;;22.90;18.20;;;;;;;10.57;85.36;97533.73;116224;1179;69179;-74
2021/09/16 03:09:41;;;;;;;22.20;17.90;;;;;;;10.52;85.90;97537.70;116149;1179;60333;-73
2021/09/16 03:12:10;;;;;;;22.90;17.40;;;;;;;10.47;85.94;97539.02;116183;1180;60341;-74
2021/09/16 03:14:40;;;;;;;22.20;17.40;;;;;;;10.45;86.03;97541.62;116324;1179;72160;-74
2021/09/16 03:17:10;;;;;;;23.60;18.40;;;;;;;10.44;86.94;97541.15;116354;1180;69158;-73
2021/09/16 03:19:39;;;;;;;24.60;18.20;;;;;;;10.44;86.40;97540.52;116396;1183;68507;-70
2021/09/16 03:22:09;;;;;;;26.60;18.30;;;;;;;10.47;87.50;97542.99;116091;1185;60364;-75
2021/09/16 03:24:38;;;;;;;23.10;18.70;;;;;;;10.47;87.56;97545.49;116133;1179;60304;-75
2021/09/16 03:27:08;;;;;;;21.30;18.30;;;;;;;10.48;86.99;97544.59;116202;1182;72158;-73
2021/09/16 03:29:38;;;;;;;24.30;18.60;;;;;;;10.51;87.44;97546.41;116308;1180;68738;-73
2021/09/16 03:32:07;;;;;;;22.70;17.30;;;;;;;10.52;86.91;97545.05;116237;1182;69089;-73
2021/09/16 03:34:37;;;;;;;26.60;18.10;;;;;;;10.50;86.31;97545.08;116355;1180;60304;-69
2021/09/16 03:37:07;;;;;;;23.90;17.70;;;;;;;10.48;85.96;97546.73;116212;1185;60325;-69
2021/09/16 03:39:37;;;;;;;24.10;18.70;;;;;;;10.45;86.47;97551.16;116308;1179;72250;-71
2021/09/16 03:42:07;;;;;;;21.20;17.20;;;;;;;10.43;86.54;97547.44;116269;1180;69478;-74
2021/09/16 03:44:36;;;;;;;26.30;19.70;;;;;;;10.43;86.85;97550.70;116305;1179;69231;-74
2021/09/16 03:47:06;;;;;;;28.00;20.60;;;;;;;10.41;86.38;97552.39;116162;1184;60375;-73
2021/09/16 03:49:38;;;;;;;25.70;18.90;;;;;;;10.41;85.73;97552.95;116345;1179;60370;-75
2021/09/16 03:52:08;;;;;;;26.10;19.50;;;;;;;10.41;86.15;97551.99;116168;1179;71214;-70
2021/09/16 03:54:38;;;;;;;24.00;19.00;;;;;;;10.39;85.94;97548.63;116305;1180;68686;-74
2021/09/16 03:57:08;;;;;;;22.40;18.30;;;;;;;10.38;85.57;97553.33;116305;1179;69249;-75
2021/09/16 03:59:37;;;;;;;22.10;17.20;;;;;;;10.35;85.29;97558.32;116196;1185;60330;-73
2021/09/16 04:02:09;;;;;;;22.70;17.40;;;;;;;10.32;85.50;97558.56;116304;1180;60339;-71
2021/09/16 04:04:39;;;;;;;23.90;18.60;;;;;;;10.29;85.34;97558.33;116366;1184;71339;-72
2021/09/16 04:07:08;;;;;;;26.30;16.60;;;;;;;10.21;84.80;97561.04;116272;1180;69378;-74
2021/09/16 04:09:38;;;;;;;24.40;16.50;;;;;;;10.10;84.68;97556.27;116261;1182;70403;-71
2021/09/16 04:12:07;;;;;;;22.10;16.10;;;;;;;10.03;84.61;97553.80;116289;1184;60356;-74
2021/09/16 04:14:37;;;;;;;17.70;14.70;;;;;;;10.01;86.00;97555.27;116254;1183;60789;-76
2021/09/16 04:17:06;;;;;;;23.30;16.40;;;;;;;10.04;85.94;97556.94;116150;1180;71172;-75
2021/09/16 04:19:35;;;;;;;23.50;16.00;;;;;;;10.06;85.73;97560.08;116260;1180;68667;-74
2021/09/16 04:22:04;;;;;;;22.40;16.90;;;;;;;10.08;85.35;97560.48;116261;1180;68399;-74
2021/09/16 04:24:34;;;;;;;22.50;15.70;;;;;;;10.14;84.74;97567.93;116402;1179;60298;-75
2021/09/16 04:27:04;;;;;;;23.30;15.00;;;;;;;10.23;85.56;97568.75;116127;1182;60333;-75
2021/09/16 04:29:33;;;;;;;24.00;15.30;;;;;;;10.36;85.19;97573.57;116367;1183;72139;-74
2021/09/16 04:32:04;;;;;;;23.80;15.40;;;;;;;10.46;84.74;97572.49;116271;1179;69295;-72
2021/09/16 04:34:33;;;;;;;26.20;15.00;;;;;;;10.55;83.81;97570.35;116288;1179;70787;-70
2021/09/16 04:37:02;;;;;;;24.00;15.50;;;;;;;10.65;83.44;97571.61;116244;1179;60407;-74
2021/09/16 04:39:32;;;;;;;19.70;13.80;;;;;;;10.73;83.55;97570.66;116284;1180;60384;-73
2021/09/16 04:42:01;;;;;;;20.20;13.80;;;;;;;10.85;83.19;97576.52;116286;1185;71998;-71
2021/09/16 04:44:30;;;;;;;21.80;13.70;;;;;;;11.00;82.63;97578.23;116277;1184;68957;-74
2021/09/16 04:46:59;;;;;;;19.10;14.30;;;;;;;11.17;82.17;97580.33;116268;1185;68381;-76
2021/09/16 04:49:29;;;;;;;26.30;14.10;;;;;;;11.35;81.51;97581.54;116298;1184;60340;-71
2021/09/16 04:51:58;;;;;;;25.10;14.70;;;;;;;11.57;81.26;97578.50;116245;1179;60334;-71
2021/09/16 04:54:27;;;;;;;17.90;13.70;;;;;;;11.71;80.49;97577.04;116033;1185;73305;-74
2021/09/16 04:56:57;;;;;;;18.00;12.90;;;;;;;11.87;79.70;97576.39;116299;1183;69158;-74
2021/09/16 04:59:26;;;;;;;22.10;13.10;;;;;;;12.10;79.27;97572.40;116238;1185;67431;-74
2021/09/16 05:01:55;;;;;;;18.10;12.20;;;;;;;12.40;79.46;97578.47;116254;1184;60340;-74
2021/09/16 05:04:24;;;;;;;19.00;12.50;;;;;;;12.67;77.04;97581.89;116259;1183;60317;-72
2021/09/16 05:06:54;;;;;;;16.30;11.90;;;;;;;12.88;76.58;97581.36;116247;1179;71530;-77
2021/09/16 05:09:23;;;;;;;17.40;12.50;;;;;;;13.09;75.77;97579.81;116231;1179;68998;-75
2021/09/16 05:11:52;;;;;;;16.00;11.80;;;;;;;13.35;75.15;97581.39;116280;1179;68503;-71
2021/09/16 05:14:22;;;;;;;23.50;12.20;;;;;;;13.54;74.07;97581.47;116270;1182;60311;-70
2021/09/16 05:16:51;;;;;;;24.90;12.30;;;;;;;13.78;73.71;97584.89;116252;1178;60365;-74
2021/09/16 05:19:20;;;;;;;34.90;13.50;;;;;;;14.10;74.72;97584.16;116253;1183;70728;-70
2021/09/16 05:21:49;;;;;;;32.40;13.10;;;;;;;14.32;71.63;97582.73;116115;1184;68407;-69
2021/09/16 05:24:18;;;;;;;32.20;13.50;;;;;;;14.56;71.54;97587.55;116218;1184;68399;-72
2021/09/16 05:26:48;;;;;;;37.70;13.70;;;;;;;14.78;70.08;97581.73;116217;1185;60368;-71
2021/09/16 05:29:17;;;;;;;44.20;14.70;;;;;;;15.06;71.11;97584.89;116215;1183;60292;-75
2021/09/16 05:31:46;;;;;;;37.00;14.60;;;;;;;15.37;69.99;97578.85;116221;1184;72268;-76
2021/09/16 05:34:15;;;;;;;44.00;13.80;;;;;;;15.64;69.62;97580.19;116225;1180;68957;-73
2021/09/16 05:36:44;;;;;;;31.10;13.90;;;;;;;15.84;68.40;97579.06;116104;1184;69170;-74
2021/09/16 05:39:13;;;;;;;35.30;13.10;;;;;;;16.08;67.82;97582.39;116239;1181;60356;-72
2021/09/16 05:41:43;;;;;;;24.40;12.90;;;;;;;16.22;65.75;97580.89;116085;1181;60367;-75
2021/09/16 05:44:12;;;;;;;37.10;13.70;;;;;;;16.24;65.38;97576.77;116234;1180;72263;-70
2021/09/16 05:46:41;;;;;;;19.90;12.30;;;;;;;16.39;65.91;97579.06;116250;1180;68297;-75
2021/09/16 05:49:10;;;;;;;21.00;12.20;;;;;;;16.71;66.17;97579.33;116259;1185;68223;-73
2021/09/16 05:51:39;;;;;;;25.50;12.20;;;;;;;16.99;66.01;97578.25;116231;1183;60352;-68
2021/09/16 05:54:08;;;;;;;25.10;11.90;;;;;;;17.27;64.95;97576.54;116262;1180;60298;-68
2021/09/16 05:56:37;;;;;;;26.50;12.10;;;;;;;17.28;63.55;97578.48;116243;1184;72332;-72
2021/09/16 05:59:06;;;;;;;22.70;12.70;;;;;;;17.56;63.25;97576.68;116275;1184;68431;-73
2021/09/16 06:01:35;;;;;;;24.30;12.30;;;;;;;17.71;62.53;97579.09;116229;1185;69174;-70
2021/09/16 06:04:04;;;;;;;23.30;13.40;;;;;;;17.90;61.95;97579.65;116231;1184;60776;-72
2021/09/16 06:06:33;;;;;;;23.60;12.00;;;;;;;18.13;61.57;97582.18;116245;1183;60360;-70
2021/09/16 06:09:03;;;;;;;25.80;12.30;;;;;;;18.00;62.17;97583.60;116279;1185;71333;-72
2021/09/16 06:11:32;;;;;;;25.90;11.80;;;;;;;18.30;61.71;97588.73;116298;1185;68282;-70
2021/09/16 06:14:01;;;;;;;28.10;13.10;;;;;;;18.47;61.35;97584.16;116038;1185;69100;-68
2021/09/16 06:16:30;;;;;;;22.30;12.10;;;;;;;18.73;60.88;97583.55;116270;1179;60715;-72
2021/09/16 06:18:59;;;;;;;21.80;12.50;;;;;;;19.09;60.94;97586.88;116256;1183;60272;-69
2021/09/16 06:21:28;;;;;;;20.30;11.00;;;;;;;19.32;59.41;97587.11;115989;1181;72184;-69
2021/09/16 06:23:57;;;;;;;19.30;10.80;;;;;;;19.58;58.04;97587.98;116198;1185;68510;-71
2021/09/16 06:26:26;;;;;;;12.70;9.80;;;;;;;19.85;58.01;97587.04;116081;1185;69299;-71
2021/09/16 06:28:56;;;;;;;14.90;10.40;;;;;;;20.08;56.80;97590.98;116155;1182;60331;-70
2021/09/16 06:31:25;;;;;;;18.10;10.60;;;;;;;20.16;56.85;97591.70;116184;1183;60346;-71
2021/09/16 06:34:04;;;;;;;22.50;9.70;;;;;;;20.39;56.25;97591.49;116181;1178;71956;-72
2021/09/16 06:36:39;;;;;;;17.20;9.90;;;;;;;20.26;56.45;97585.48;116145;1184;69079;-74
2021/09/16 06:39:09;;;;;;;16.70;11.50;;;;;;;20.27;55.92;97585.23;116139;1185;68682;-70
2021/09/16 06:41:39;;;;;;;24.50;14.80;;;;;;;20.69;56.09;97586.75;116073;1179;60378;-68
2021/09/16 06:44:08;;;;;;;33.70;17.20;;;;;;;20.95;54.03;97582.76;116163;1179;60287;-72
2021/09/16 06:46:37;;;;;;;33.50;15.60;;;;;;;21.24;53.56;97581.16;116217;1185;72222;-71
2021/09/16 06:49:06;;;;;;;30.70;17.90;;;;;;;21.47;53.41;97584.02;116210;1184;69399;-68
2021/09/16 06:51:35;;;;;;;27.50;18.80;;;;;;;21.69;53.02;97582.36;116212;1184;69019;-72
2021/09/16 06:54:04;;;;;;;26.50;19.20;;;;;;;21.88;52.56;97583.70;116204;1185;60352;-75
2021/09/16 06:56:33;;;;;;;41.60;22.70;;;;;;;22.40;52.27;97581.58;116140;1180;60336;-70
2021/09/16 06:59:02;;;;;;;44.30;28.80;;;;;;;22.83;50.81;97584.27;116212;1184;70583;-69
2021/09/16 07:01:33;;;;;;;36.30;26.00;;;;;;;23.07;48.87;97585.30;116142;1183;69112;-70
2021/09/16 07:04:03;;;;;;;27.50;19.90;;;;;;;23.53;49.22;97588.83;116241;1181;69210;-70
2021/09/16 07:06:36;;;;;;;20.70;17.30;;;;;;;23.74;47.13;97591.16;116197;1184;60343;-70
2021/09/16 07:09:06;;;;;;;21.70;18.00;;;;;;;23.68;47.07;97592.02;116252;1184;60417;-69
2021/09/16 07:11:35;;;;;;;25.70;15.10;;;;;;;23.87;46.76;97596.77;116204;1185;71189;-69
2021/09/16 07:14:04;;;;;;;19.00;12.50;;;;;;;23.93;45.75;97597.59;116257;1184;67857;-71
2021/09/16 07:16:33;;;;;;;18.40;10.90;;;;;;;23.56;47.61;97599.25;116218;1183;69209;-71
2021/09/16 07:19:03;;;;;;;14.40;9.40;;;;;;;24.06;46.64;97595.36;116216;1182;60369;-71
2021/09/16 07:21:33;;;;;;;17.90;8.90;;;;;;;24.28;45.01;97596.56;116098;1184;60371;-69
2021/09/16 07:24:03;;;;;;;14.10;9.20;;;;;;;24.19;45.73;97592.83;116225;1185;71241;-71
2021/09/16 07:26:32;;;;;;;18.20;8.80;;;;;;;24.30;45.71;97592.69;116243;1183;69033;-77
2021/09/16 07:29:01;;;;;;;15.20;8.20;;;;;;;24.58;45.13;97592.71;116164;1184;68528;-70
2021/09/16 07:31:30;;;;;;;14.50;8.10;;;;;;;24.65;44.50;97592.67;116202;1185;60338;-70
2021/09/16 07:34:00;;;;;;;10.90;8.70;;;;;;;24.28;45.38;97589.06;116233;1185;60352;-74
2021/09/16 07:36:28;;;;;;;;;;;;;;;24.23;45.51;97588.38;116216;1184;71162;-69
2021/09/16 07:38:57;;;;;;;15.00;9.50;;;;;;;24.43;45.67;97589.48;116199;1183;68516;-68
2021/09/16 07:41:26;;;;;;;16.10;10.40;;;;;;;24.71;44.71;97590.60;116041;1184;69238;-69
2021/09/16 07:43:55;;;;;;;13.50;8.40;;;;;;;24.70;44.27;97590.97;116194;1183;60314;-72
2021/09/16 07:46:26;;;;;;;14.20;9.20;;;;;;;25.06;43.97;97587.46;116003;1185;60421;-71
2021/09/16 07:48:57;;;;;;;13.90;8.20;;;;;;;25.10;43.29;97584.52;116225;1183;72122;-71
2021/09/16 07:51:26;;;;;;;12.10;7.40;;;;;;;25.58;42.07;97589.58;116076;1185;69171;-69
2021/09/16 07:53:55;;;;;;;9.40;6.80;;;;;;;25.56;41.97;97592.38;116067;1185;69039;-70
2021/09/16 07:56:25;;;;;;;14.60;7.30;;;;;;;25.70;41.01;97588.61;116173;1181;60331;-69
2021/09/16 07:58:54;;;;;;;10.20;7.40;;;;;;;25.74;41.25;97585.47;116209;1182;60317;-70
2021/09/16 08:01:25;;;;;;;10.60;6.80;;;;;;;25.73;41.30;97585.06;116210;1185;71393;-72
2021/09/16 08:03:54;;;;;;;10.90;6.70;;;;;;;26.11;40.38;97587.54;116229;1183;68443;-75
2021/09/16 08:06:24;;;;;;;12.10;6.90;;;;;;;26.35;40.51;97582.98;116042;1182;69025;-70
2021/09/16 08:08:53;;;;;;;11.10;7.10;;;;;;;27.02;38.74;97580.05;116209;1185;60357;-69
2021/09/16 08:11:23;;;;;;;11.40;7.30;;;;;;;27.48;37.36;97582.23;116209;1179;60775;-69
2021/09/16 08:13:52;;;;;;;9.80;7.20;;;;;;;27.65;37.34;97572.00;116198;1183;71173;-72
2021/09/16 08:16:22;;;;;;;10.10;6.50;;;;;;;28.10;36.44;97571.81;116231;1183;68229;-70
2021/09/16 08:18:51;;;;;;;;;;;;;;;28.31;35.84;97562.69;116066;1184;70235;-69
2021/09/16 08:21:22;;;;;;;9.90;6.40;;;;;;;28.24;35.63;97562.59;116199;1179;60359;-70
2021/09/16 08:23:51;;;;;;;11.80;7.00;;;;;;;28.42;34.92;97564.11;116198;1179;60342;-75
2021/09/16 08:26:20;;;;;;;8.60;6.20;;;;;;;28.66;35.06;97561.33;116160;1184;71992;-70
2021/09/16 08:28:50;;;;;;;11.30;6.30;;;;;;;28.80;34.44;97564.91;115963;1181;69339;-73
2021/09/16 08:31:20;;;;;;;;;;;;;;;29.42;32.80;97564.83;116194;1183;68291;-72
2021/09/16 08:33:49;;;;;;;;;;;;;;;28.86;33.25;97563.33;116236;1184;60346;-70
2021/09/16 08:36:18;;;;;;;8.40;5.90;;;;;;;28.39;34.28;97562.10;116198;1183;60344;-69
2021/09/16 08:38:48;;;;;;;8.60;6.50;;;;;;;28.43;34.70;97557.14;116147;1185;72026;-70
2021/09/16 08:41:17;;;;;;;9.70;5.90;;;;;;;29.31;34.01;97562.91;116188;1179;68558;-69
2021/09/16 08:43:48;;;;;;;10.40;5.60;;;;;;;29.79;32.58;97557.30;116141;1185;69571;-78
2021/09/16 08:46:17;;;;;;;9.90;5.90;;;;;;;30.13;31.95;97548.77;116068;1179;60310;-70
2021/09/16 08:48:47;;;;;;;9.80;6.00;;;;;;;30.74;32.06;97547.85;116170;1183;60362;-76
2021/09/16 08:51:16;;;;;;;12.30;6.10;;;;;;;31.01;30.84;97546.10;116055;1183;72005;-70
2021/09/16 08:53:47;;;;;;;12.00;5.80;;;;;;;31.35;30.12;97542.23;116105;1184;69009;-71
2021/09/16 08:56:16;;;;;;;15.30;6.30;;;;;;;31.39;29.86;97541.70;116173;1183;69149;-69
2021/09/16 08:58:46;;;;;;;12.60;5.80;;;;;;;31.48;29.77;97539.45;116147;1182;60313;-69
2021/09/16 09:01:17;;;;;;;10.50;5.70;;;;;;;31.79;29.57;97536.41;116072;1182;60332;-70
2021/09/16 09:03:46;;;;;;;11.20;5.70;;;;;;;31.86;28.65;97530.48;116047;1182;71378;-70
2021/09/16 09:06:42;;;;;;;7.90;5.40;;;;;;;31.71;29.41;97534.08;116061;1184;69133;-77
2021/09/16 09:09:16;;;;;;;7.40;5.40;;;;;;;31.88;28.23;97528.67;116157;1183;68269;-77
2021/09/16 09:11:48;;;;;;;7.80;5.40;;;;;;;31.96;28.62;97527.07;116193;1185;60347;-70
2021/09/16 09:14:28;;;;;;;10.20;5.80;;;;;;;32.26;27.96;97525.73;116215;1184;60436;-71
2021/09/16 09:16:59;;;;;;;8.80;5.50;;;;;;;32.59;27.89;97527.31;116145;1184;72702;-71
2021/09/16 09:19:30;;;;;;;7.40;5.50;;;;;;;32.48;27.38;97530.05;116229;1184;69000;-71
2021/09/16 09:22:05;;;;;;;8.70;5.70;;;;;;;32.12;27.89;97528.30;116080;1185;68270;-71
2021/09/16 09:24:38;;;;;;;8.70;5.50;;;;;;;32.21;27.59;97523.31;116147;1184;60298;-71
2021/09/16 09:27:20;;;;;;;7.60;5.80;;;;;;;32.31;27.09;97522.77;116205;1180;60324;-72
2021/09/16 09:30:08;;;;;;;9.10;5.70;;;;;;;32.27;26.09;97519.40;116195;1183;71932;-72
2021/09/16 09:32:58;;;;;;;8.40;5.90;;;;;;;32.27;26.47;97519.25;116165;1184;69180;-77
2021/09/16 09:35:30;;;;;;;8.90;5.90;;;;;;;32.07;26.66;97518.73;116150;1184;68495;-70
2021/09/16 09:38:19;;;;;;;8.50;5.60;;;;;;;32.16;26.80;97517.32;116139;1184;60327;-71
2021/09/16 09:40:51;;;;;;;7.20;5.50;;;;;;;32.34;26.34;97516.71;116189;1180;60768;-71
2021/09/16 09:43:27;;;;;;;11.60;6.00;;;;;;;32.21;26.60;97513.58;116115;1185;71172;-77
2021/09/16 09:46:06;;;;;;;7.90;4.90;;;;;;;32.19;26.73;97514.40;116111;1183;68970;-72
2021/09/16 09:48:46;;;;;;;10.90;5.00;;;;;;;32.37;27.69;97513.92;116040;1182;68265;-71
2021/09/16 09:51:15;;;;;;;8.60;5.70;;;;;;;32.80;26.73;97512.40;116079;1179;60337;-70
2021/09/16 09:53:45;;;;;;;;;;;;;;;33.48;25.54;97512.02;116157;1180;60341;-71
2021/09/16 09:56:33;;;;;;;10.10;6.80;;;;;;;33.26;25.20;97510.98;116090;1184;72117;-73
2021/09/16 09:59:03;;;;;;;8.70;5.40;;;;;;;32.65;26.31;97508.52;116108;1184;69473;-70
2021/09/16 10:01:37;;;;;;;9.40;5.70;;;;;;;32.64;26.40;97502.91;116073;1179;68611;-69
2021/09/16 10:04:27;;;;;;;11.00;6.80;;;;;;;33.01;25.69;97503.20;116038;1182;60353;-70
2021/09/16 10:06:58;;;;;;;9.40;5.90;;;;;;;33.24;24.67;97500.95;116064;1181;60413;-76
2021/09/16 10:09:27;;;;;;;7.60;5.50;;;;;;;32.55;25.18;97502.44;116110;1181;71703;-74
2021/09/16 10:11:58;;;;;;;8.40;5.90;;;;;;;32.69;25.16;97500.59;116146;1184;69447;-70
2021/09/16 10:14:27;;;;;;;8.00;6.40;;;;;;;33.15;24.98;97498.73;116033;1185;69214;-70
2021/09/16 10:16:56;;;;;;;8.60;5.30;;;;;;;33.05;25.48;97498.52;116062;1182;60355;-70
2021/09/16 10:19:25;;;;;;;8.60;5.50;;;;;;;33.68;25.04;97494.81;116098;1184;60357;-71
2021/09/16 10:21:54;;;;;;;8.60;5.80;;;;;;;33.46;24.87;97497.39;116093;1179;72101;-73
2021/09/16 10:24:23;;;;;;;14.90;5.60;;;;;;;32.66;25.82;97488.16;116121;1184;69104;-69
2021/09/16 10:26:52;;;;;;;8.60;5.80;;;;;;;32.02;26.89;97489.92;116141;1182;69252;-70
2021/09/16 10:29:27;;;;;;;13.30;6.20;;;;;;;33.21;26.35;97485.72;116085;1180;60339;-77
2021/09/16 10:32:05;;;;;;;9.70;5.60;;;;;;;33.93;25.08;97488.64;116109;1184;60268;-72
2021/09/16 10:34:50;;;;;;;11.40;6.10;;;;;;;34.70;24.22;97486.15;116090;1181;72188;-70
2021/09/16 10:37:20;;;;;;;16.30;5.90;;;;;;;35.01;23.74;97479.44;116166;1184;69269;-74
2021/09/16 10:39:50;;;;;;;11.50;5.90;;;;;;;35.20;23.21;97478.99;116045;1180;68424;-73
2021/09/16 10:42:55;;;;;;;12.50;6.80;;;;;;;35.22;23.28;97480.46;116054;1184;60325;-75
2021/09/16 10:45:28;;;;;;;8.20;5.70;;;;;;;35.56;22.93;97481.34;116045;1184;60330;-76
2021/09/16 10:48:25;;;;;;;12.10;5.40;;;;;;;34.85;23.40;97478.33;116082;1184;71435;-77
2021/09/16 10:50:57;;;;;;;9.60;5.30;;;;;;;34.33;23.74;97471.99;116117;1179;69175;-73
2021/09/16 10:53:34;;;;;;;7.90;5.40;;;;;;;34.43;24.12;97474.05;116092;1184;69046;-76
2021/09/16 10:56:05;;;;;;;8.80;5.00;;;;;;;34.34;24.57;97471.67;116133;1184;60332;-73
2021/09/16 10:58:34;;;;;;;6.00;4.80;;;;;;;34.14;24.15;97465.10;116038;1185;60371;-70
2021/09/16 11:01:03;;;;;;;8.90;4.90;;;;;;;34.18;25.15;97467.79;116136;1179;71571;-73
2021/09/16 11:03:59;;;;;;;6.80;4.80;;;;;;;34.90;23.16;97462.73;116066;1184;69128;-70
2021/09/16 11:06:42;;;;;;;7.80;5.10;;;;;;;34.74;23.46;97462.52;116064;1179;68338;-73
2021/09/16 11:09:12;;;;;;;10.30;5.30;;;;;;;34.08;24.01;97456.58;116103;1184;60353;-70
2021/09/16 11:11:53;;;;;;;11.30;5.10;;;;;;;34.06;23.77;97456.02;116086;1185;60324;-76
2021/09/16 11:14:32;;;;;;;8.20;5.00;;;;;;;33.92;24.20;97449.18;115948;1185;71255;-72
2021/09/16 11:17:05;;;;;;;7.20;5.00;;;;;;;34.51;24.17;97452.52;115953;1182;69215;-72
2021/09/16 11:19:46;;;;;;;10.40;5.10;;;;;;;34.30;24.02;97452.98;116127;1184;69287;-73
2021/09/16 11:22:22;;;;;;;8.10;4.90;;;;;;;34.26;23.87;97451.06;116054;1183;60359;-72
2021/09/16 11:24:57;;;;;;;8.40;5.30;;;;;;;34.61;23.59;97446.38;116093;1181;60308;-70
2021/09/16 11:27:32;;;;;;;9.30;5.10;;;;;;;34.93;22.55;97443.45;116106;1184;72157;-77
2021/09/16 11:30:04;;;;;;;6.60;4.80;;;;;;;34.63;23.09;97439.02;116115;1182;69080;-69
2021/09/16 11:32:36;;;;;;;8.80;5.00;;;;;;;34.66;23.38;97430.94;116084;1183;69055;-70
2021/09/16 11:35:16;;;;;;;8.90;4.70;;;;;;;35.36;22.07;97430.25;116113;1182;60325;-72